Time;durP1;ratioP1;P1;durP2;ratioP2;P2;SDS_P1;SDS_P2;PMS_P1;PMS_P2;Temp;Humidity;BMP_temperature;BMP_pressure;BME280_temperature;BME280_humidity;BME280_pressure;Samples;Min_cycle;Max_cycle;Signal;HPM_P1;HPM_P2
2023/06/17 00:00:50;;;;;;;;;;;;;;;;;;;;;
2023/06/17 00:03:51;;;;;;;;;;;;;;;;;;;;;
2023/06/17 00:07:00;;;;;;;;;;;;;;;;;;;;;
2023/06/17 00:09:43;;;;;;;;;;;;;;;;;;;;;
2023/06/17 00:22:44;;;;;;;;;;;;;;;;;;;;;
2023/06/17 00:29:17;;;;;;;;;;;;;;;;;;;;;
2023/06/17 00:36:08;;;;;;;;;;;;;;;;;;;;;
2023/06/17 00:42:53;;;;;;;;;;;;;;;;;;;;;
2023/06/17 00:46:01;;;;;;;;;;;;;;;;;;;;;
2023/06/17 00:49:07;;;;;;;;;16.50;16.50;;;;;26.27;34.37;101033.66;6151346;23;73991;-65
2023/06/17 00:55:39;;;;;;;;;16.50;15.25;;;;;26.29;33.78;101037.13;6234612;22;45469;-65
2023/06/17 00:58:41;;;;;;;;;;;;;;;;;;;;;
2023/06/17 01:08:40;;;;;;;;;;;;;;;;;;;;;
2023/06/17 01:12:01;;;;;;;;;16.00;15.50;;;;;26.03;34.57;101002.16;6206253;22;72968;-65
2023/06/17 01:15:04;;;;;;;;;;;;;;;;;;;;;
2023/06/17 01:18:07;;;;;;;;;;;;;;;;;;;;;
2023/06/17 01:21:38;;;;;;;;;;;;;;;;;;;;;
2023/06/17 01:31:46;;;;;;;;;;;;;;;;;;;;;
2023/06/17 01:34:53;;;;;;;;;;;;;;;;;;;;;
2023/06/17 01:41:54;;;;;;;;;;;;;;;;;;;;;
2023/06/17 01:45:06;;;;;;;;;;;;;;;;;;;;;
2023/06/17 01:48:21;;;;;;;;;16.75;16.00;;;;;25.91;35.21;101005.97;6276079;22;69454;-65
2023/06/17 01:58:32;;;;;;;;;;;;;;;;;;;;;
2023/06/17 02:15:48;;;;;;;;;;;;;;;;;;;;;
2023/06/17 02:19:11;;;;;;;;;;;;;;;;;;;;;
2023/06/17 02:22:35;;;;;;;;;;;;;;;;;;;;;
2023/06/17 02:25:40;;;;;;;;;;;;;;;;;;;;;
2023/06/17 02:28:52;;;;;;;;;;;;;;;;;;;;;
2023/06/17 02:42:24;;;;;;;;;16.25;14.00;;;;;25.31;36.71;100947.66;6285432;22;45372;-65
2023/06/17 02:55:37;;;;;;;;;;;;;;;;;;;;;
2023/06/17 02:59:01;;;;;;;;;;;;;;;;;;;;;
2023/06/17 03:13:22;;;;;;;;;17.25;16.50;;;;;25.17;37.16;100937.09;6127337;23;45477;-65
2023/06/17 03:19:35;;;;;;;;;;;;;;;;;;;;;
2023/06/17 03:22:57;;;;;;;;;;;;;;;;;;;;;
2023/06/17 03:30:03;;;;;;;;;;;;;;;;;;;;;
2023/06/17 03:43:45;;;;;;;;;;;;;;;;;;;;;
2023/06/17 03:47:07;;;;;;;;;;;;;;;;;;;;;
2023/06/17 03:53:35;;;;;;;;;;;;;;;;;;;;;
2023/06/17 03:56:39;;;;;;;;;;;;;;;;;;;;;
2023/06/17 04:16:45;;;;;;;;;;;;;;;;;;;;;
2023/06/17 04:20:06;;;;;;;;;;;;;;;;;;;;;
2023/06/17 04:27:05;;;;;;;;;;;;;;;;;;;;;
2023/06/17 04:40:10;;;;;;;;;;;;;;;;;;;;;
2023/06/17 04:47:01;;;;;;;;;;;;;;;;;;;;;
2023/06/17 04:50:02;;;;;;;;;12.50;12.50;;;;;24.64;39.59;100967.34;6116991;23;46137;-65
2023/06/17 04:53:14;;;;;;;;;;;;;;;;;;;;;
2023/06/17 04:59:50;;;;;;;;;;;;;;;;;;;;;
2023/06/17 05:03:17;;;;;;;;;;;;;;;;;;;;;
2023/06/17 05:13:26;;;;;;;;;;;;;;;;;;;;;
2023/06/17 05:23:21;;;;;;;;;;;;;;;;;;;;;
2023/06/17 05:29:54;;;;;;;;;;;;;;;;;;;;;
2023/06/17 07:08:16;;;;;;;;;10.75;10.50;;;;;24.67;40.07;100946.09;6270633;22;47005;-68
2023/06/17 07:10:44;;;;;;;;;10.50;9.50;;;;;24.66;40.27;100944.38;6279918;22;45517;-68
2023/06/17 07:26:27;;;;;;;;;14.75;14.25;;;;;24.99;40.32;100971.53;6112991;22;45484;-68
2023/06/17 07:29:06;;;;;;;;;;;;;;;;;;;;;
2023/06/17 07:31:51;;;;;;;;;15.00;12.00;;;;;24.90;40.52;100949.50;6306679;22;74416;-68
2023/06/17 07:34:19;;;;;;;;;6.75;6.00;;;;;24.84;40.46;100938.25;6307725;22;45418;-67
2023/06/17 07:36:52;;;;;;;;;14.00;13.25;;;;;24.98;40.61;100954.28;6307495;22;45554;-67
2023/06/17 08:21:05;;;;;;;;;;;;;;;;;;;;;
2023/06/17 08:23:53;;;;;;;;;;;;;;;;;;;;;
2023/06/17 10:27:04;;;;;;;;;19.50;18.75;;;;;27.95;38.48;100894.75;6274245;22;45692;-70
2023/06/17 10:29:32;;;;;;;;;20.25;18.00;;;;;27.98;38.48;100891.66;6279924;22;45269;-82
2023/06/17 10:32:09;;;;;;;;;18.25;18.25;;;;;28.03;38.83;100894.81;6253516;22;45334;-82
2023/06/17 10:34:34;;;;;;;;;14.00;13.75;;;;;27.99;38.35;100874.19;6281087;22;47107;-81
2023/06/17 10:37:02;;;;;;;;;17.75;17.00;;;;;28.07;39.06;100878.88;6278685;22;45420;-82
2023/06/17 10:39:27;;;;;;;;;16.25;16.25;;;;;28.23;38.68;100891.84;6279466;22;45290;-82
2023/06/17 10:41:59;;;;;;;;;18.25;16.25;;;;;28.23;37.67;100883.59;6281169;22;45308;-80
2023/06/17 10:44:33;;;;;;;;;19.75;16.75;;;;;28.32;37.67;100901.88;6253037;22;47123;-81
2023/06/17 10:46:59;;;;;;;;;21.00;18.50;;;;;28.33;38.69;100886.25;6281096;22;45194;-82
2023/06/17 10:49:25;;;;;;;;;21.50;18.75;;;;;28.34;38.62;100874.25;6257702;22;45246;-81
2023/06/17 10:51:57;;;;;;;;;20.00;19.00;;;;;28.42;38.59;100875.16;6254902;22;45239;-82
2023/06/17 10:54:27;;;;;;;;;23.25;18.50;;;;;28.48;38.78;100878.28;6250318;22;47879;-82
2023/06/17 10:56:52;;;;;;;;;18.00;18.00;;;;;28.52;37.68;100866.81;6279892;22;45374;-82
2023/06/17 10:59:27;;;;;;;;;21.25;20.25;;;;;28.61;38.19;100879.56;6253089;22;45247;-82
2023/06/17 11:02:00;;;;;;;;;20.75;19.00;;;;;28.65;37.91;100871.84;6251455;22;45417;-81
2023/06/17 11:04:28;;;;;;;;;18.00;18.00;;;;;28.68;37.64;100870.69;6278865;22;46242;-82
2023/06/17 11:06:53;;;;;;;;;21.25;19.00;;;;;28.68;37.49;100857.78;6280362;22;45189;-81
2023/06/17 11:09:25;;;;;;;;;17.00;16.25;;;;;28.74;37.22;100861.78;6279186;22;45273;-83
2023/06/17 11:11:51;;;;;;;;;16.75;16.75;;;;;28.77;37.84;100862.31;6282523;22;45258;-83
2023/06/17 11:14:18;;;;;;;;;16.50;16.25;;;;;28.85;38.15;100869.69;6282235;22;45278;-84
2023/06/17 11:16:43;;;;;;;;;18.25;18.25;;;;;28.82;37.20;100848.94;6253975;22;45720;-84
2023/06/17 11:19:08;;;;;;;;;20.25;20.25;;;;;28.97;37.58;100867.53;6282438;22;45212;-84
2023/06/17 11:21:33;;;;;;;;;20.25;19.50;;;;;29.00;37.45;100864.44;6281457;22;46848;-80
2023/06/17 11:23:59;;;;;;;;;16.50;16.25;;;;;29.00;37.43;100865.31;6280558;22;52042;-81
2023/06/17 11:26:25;;;;;;;;;21.75;19.00;;;;;29.00;38.06;100845.19;6281772;22;45257;-81
2023/06/17 11:28:51;;;;;;;;;20.00;19.25;;;;;29.04;37.68;100843.00;6253788;22;45198;-81
2023/06/17 11:31:17;;;;;;;;;17.25;17.25;;;;;29.14;37.41;100843.69;6281835;22;45313;-80
2023/06/17 11:33:43;;;;;;;;;20.25;19.50;;;;;29.11;37.29;100841.28;6280147;22;46461;-79
2023/06/17 11:36:13;;;;;;;;;19.25;17.75;;;;;29.13;37.59;100831.81;6281850;22;45182;-81
2023/06/17 11:38:40;;;;;;;;;19.75;18.50;;;;;29.15;37.61;100823.41;6253400;22;45187;-80
2023/06/17 11:41:05;;;;;;;;;17.75;17.75;;;;;29.24;36.98;100835.34;6255537;22;45404;-81
2023/06/17 11:43:31;;;;;;;;;18.50;16.75;;;;;29.26;37.35;100825.88;6251985;22;47164;-79
2023/06/17 11:45:57;;;;;;;;;17.25;17.25;;;;;29.29;37.29;100828.28;6278803;22;45582;-80
2023/06/17 11:48:32;;;;;;;;;17.00;17.00;;;;;29.33;37.15;100828.81;6275868;22;45305;-80
2023/06/17 11:50:58;;;;;;;;;19.75;17.75;;;;;29.36;36.80;100812.81;6251423;22;45366;-80
2023/06/17 11:53:37;;;;;;;;;17.75;16.25;;;;;29.41;36.50;100815.06;6280324;22;45297;-79
2023/06/17 11:56:07;;;;;;;;;17.50;16.50;;;;;29.33;37.04;100802.16;6283405;22;45452;-80
2023/06/17 11:58:34;;;;;;;;;19.00;18.00;;;;;29.43;37.03;100810.25;6256253;22;45129;-81
2023/06/17 12:01:00;;;;;;;;;16.25;16.25;;;;;29.46;36.50;100807.16;6283390;22;45417;-81
2023/06/17 12:03:27;;;;;;;;;17.25;16.75;;;;;29.41;36.81;100804.06;6282377;22;45344;-81
2023/06/17 12:05:52;;;;;;;;;16.50;16.50;;;;;29.46;36.50;100806.31;6282929;22;45695;-81
2023/06/17 12:08:18;;;;;;;;;17.00;17.00;;;;;29.47;36.94;100806.13;6280879;22;45257;-81
2023/06/17 12:10:43;;;;;;;;;16.75;16.75;;;;;29.47;35.78;100797.00;6283385;22;45235;-81
2023/06/17 12:13:12;;;;;;;;;15.50;15.50;;;;;29.46;36.31;100795.31;6280898;22;47226;-79
2023/06/17 12:15:38;;;;;;;;;16.75;16.75;;;;;29.54;35.88;100809.91;6283582;22;45215;-80
2023/06/17 12:18:11;;;;;;;;;14.75;14.25;;;;;29.52;36.33;100797.34;6283448;22;45300;-80
2023/06/17 12:20:37;;;;;;;;;18.50;18.00;;;;;29.53;35.42;100794.44;6254988;22;45495;-80
2023/06/17 12:23:03;;;;;;;;;14.25;14.00;;;;;29.62;36.21;100800.81;6282774;22;46554;-80
2023/06/17 12:25:35;;;;;;;;;15.50;15.50;;;;;29.61;35.79;100798.22;6281917;22;45136;-80
2023/06/17 12:28:01;;;;;;;;;17.50;15.75;;;;;29.59;35.99;100792.91;6282974;22;45439;-80
2023/06/17 12:30:27;;;;;;;;;19.50;18.75;;;;;29.61;35.97;100784.47;6282318;22;45257;-80
2023/06/17 12:32:53;;;;;;;;;15.50;15.50;;;;;29.69;35.99;100801.81;6274077;22;46131;-79
2023/06/17 12:35:19;;;;;;;;;20.25;18.50;;;;;29.66;36.53;100804.91;6246421;22;45444;-80
2023/06/17 12:37:48;;;;;;;;;18.25;16.25;;;;;29.67;35.79;100797.50;6272451;22;45357;-81
2023/06/17 12:40:13;;;;;;;;;17.00;16.00;;;;;29.65;35.97;100789.44;6246123;22;45662;-81
2023/06/17 12:42:39;;;;;;;;;19.75;17.50;;;;;29.68;36.83;100782.72;6246464;22;48641;-81
2023/06/17 12:45:06;;;;;;;;;19.75;18.75;;;;;29.74;36.24;100793.06;6273697;22;45302;-81
2023/06/17 12:47:31;;;;;;;;;19.00;19.00;;;;;29.68;36.40;100783.59;6273370;22;45368;-80
2023/06/17 12:49:57;;;;;;;;;18.75;18.50;;;;;29.74;36.04;100799.41;6245767;22;45412;-80
2023/06/17 12:52:22;;;;;;;;;18.75;18.75;;;;;29.64;36.45;100775.88;6245907;22;48178;-81
2023/06/17 12:54:57;;;;;;;;;17.75;17.25;;;;;29.78;36.14;100797.19;6276009;22;45152;-81
2023/06/17 12:57:23;;;;;;;;;17.50;17.50;;;;;29.78;35.66;100786.19;6278171;22;45152;-81
2023/06/17 12:59:48;;;;;;;;;15.50;15.50;;;;;29.73;36.07;100780.31;6250220;22;56263;-82
2023/06/17 13:02:13;;;;;;;;;19.75;18.25;;;;;29.74;35.99;100777.41;6278261;22;45189;-82
2023/06/17 13:04:39;;;;;;;;;16.00;16.00;;;;;29.79;36.02;100784.28;6278171;22;45222;-82
2023/06/17 13:07:04;;;;;;;;;21.25;21.25;;;;;29.79;36.59;100784.28;6277846;22;45346;-82
2023/06/17 13:09:30;;;;;;;;;18.50;18.50;;;;;29.72;36.25;100773.09;6277787;22;45424;-82
2023/06/17 13:11:55;;;;;;;;;20.50;20.00;;;;;29.77;36.25;100776.25;6277996;22;45330;-82
2023/06/17 13:14:21;;;;;;;;;17.00;16.75;;;;;29.67;36.33;100756.25;6250108;22;45357;-82
2023/06/17 13:16:46;;;;;;;;;20.50;19.50;;;;;29.77;36.37;100764.31;6276334;22;45290;-82
2023/06/17 13:19:12;;;;;;;;;19.00;17.50;;;;;29.72;36.51;100748.34;6278294;22;45251;-82
2023/06/17 13:21:37;;;;;;;;;17.75;17.75;;;;;29.69;36.17;100745.97;6277402;22;45288;-82
2023/06/17 13:24:03;;;;;;;;;18.50;18.50;;;;;29.78;35.90;100761.44;6277637;22;45291;-81
2023/06/17 13:26:29;;;;;;;;;17.75;17.75;;;;;29.78;35.88;100755.94;6278236;22;45314;-81
2023/06/17 13:28:56;;;;;;;;;16.75;16.00;;;;;29.79;35.24;100754.03;6278070;22;45448;-81
2023/06/17 13:31:21;;;;;;;;;15.00;15.00;;;;;29.83;35.88;100763.66;6277961;22;45216;-82
2023/06/17 13:43:49;;;;;;;;;14.75;14.25;;;;;29.70;37.28;100762.28;5233475;22;46309;-83
2023/06/17 13:46:14;;;;;;;;;15.50;15.50;;;;;29.67;37.29;100770.88;4995018;28;48107;-82
2023/06/17 13:48:40;;;;;;;;;16.25;16.25;;;;;29.65;38.21;100756.41;4974323;28;45326;-82
2023/06/17 13:51:06;;;;;;;;;16.25;16.25;;;;;29.68;38.32;100761.59;4976550;28;45185;-83
2023/06/17 13:53:31;;;;;;;;;19.75;18.50;;;;;29.69;38.15;100762.47;4976351;28;45299;-82
2023/06/17 13:55:58;;;;;;;;;16.75;16.50;;;;;29.74;37.44;100765.53;4984294;28;49954;-82
2023/06/17 13:58:23;;;;;;;;;14.50;14.50;;;;;29.74;37.01;100751.78;4976172;28;45462;-82
2023/06/17 14:00:49;;;;;;;;;19.75;17.25;;;;;29.79;36.84;100749.41;4991490;28;45513;-82
2023/06/17 14:03:15;;;;;;;;;17.75;16.50;;;;;29.82;36.63;100739.91;4991372;28;45400;-82
2023/06/17 14:05:41;;;;;;;;;14.00;14.00;;;;;29.80;36.12;100744.75;4974968;28;45346;-82
2023/06/17 14:08:06;;;;;;;;;17.50;16.50;;;;;29.81;36.65;100741.81;4975469;28;45518;-82
2023/06/17 14:10:32;;;;;;;;;20.75;20.75;;;;;29.84;36.56;100741.47;4975753;28;45274;-82
2023/06/17 14:12:57;;;;;;;;;18.50;17.75;;;;;29.88;36.15;100745.59;4978015;28;45484;-82
2023/06/17 14:15:23;;;;;;;;;18.50;14.25;;;;;29.88;35.93;100742.81;4979288;28;56257;-82
2023/06/17 14:17:48;;;;;;;;;13.50;13.50;;;;;29.89;35.93;100735.44;4976466;28;45306;-82
2023/06/17 14:20:14;;;;;;;;;17.25;17.25;;;;;29.87;35.41;100743.88;4975323;28;45193;-82
2023/06/17 14:22:39;;;;;;;;;17.50;16.00;;;;;29.86;35.68;100741.31;4973261;28;45339;-82
2023/06/17 14:25:05;;;;;;;;;11.75;11.25;;;;;29.68;35.50;100716.72;4980310;28;45183;-82
2023/06/17 14:27:37;;;;;;;;;16.00;16.00;;;;;29.85;38.07;100753.34;4978829;28;45595;-82
2023/06/17 14:30:04;;;;;;;;;16.75;16.00;;;;;29.80;39.57;100762.09;4978075;28;45450;-82
2023/06/17 14:32:30;;;;;;;;;20.00;17.00;;;;;29.76;40.39;100774.47;4989700;28;45383;-82
2023/06/17 14:34:56;;;;;;;;;18.00;17.00;;;;;29.72;40.85;100784.09;4996237;28;47617;-82
2023/06/17 14:37:22;;;;;;;;;18.50;17.25;;;;;29.45;42.06;100746.84;4976765;28;46395;-82
2023/06/17 14:39:48;;;;;;;;;17.75;17.75;;;;;29.41;43.19;100773.81;4974689;28;45348;-82
2023/06/17 14:42:13;;;;;;;;;20.75;20.00;;;;;29.26;42.72;100805.78;4974261;28;45296;-84
2023/06/17 14:44:39;;;;;;;;;17.75;15.50;;;;;29.03;43.95;100787.16;4979531;28;45371;-83
2023/06/17 14:47:06;;;;;;;;;17.75;17.75;;;;;28.86;42.78;100767.03;4962213;28;45425;-83
2023/06/17 14:49:32;;;;;;;;;13.75;13.75;;;;;28.64;43.71;100766.63;4948920;28;45652;-83
2023/06/17 14:51:59;;;;;;;;;15.25;14.50;;;;;28.56;43.71;100799.56;4960830;28;45476;-83
2023/06/17 14:54:25;;;;;;;;;18.50;18.50;;;;;28.42;43.63;100786.47;4962730;28;45837;-83
2023/06/17 14:56:50;;;;;;;;;15.25;15.25;;;;;28.38;43.47;100791.38;4961807;28;45210;-83
2023/06/17 14:59:15;;;;;;;;;16.25;15.00;;;;;28.16;43.81;100765.41;4962427;28;45321;-83
2023/06/17 15:01:41;;;;;;;;;12.50;10.25;;;;;28.17;43.35;100780.00;4962064;28;45683;-83
2023/06/17 15:04:06;;;;;;;;;13.00;12.25;;;;;27.89;43.56;100756.31;4961589;28;45380;-83
2023/06/17 15:06:33;;;;;;;;;10.00;10.00;;;;;27.81;44.51;100760.88;4961766;28;45328;-83
2023/06/17 15:09:21;;;;;;;;;12.25;11.50;;;;;27.77;44.91;100762.25;4955844;28;45383;-83
2023/06/17 15:11:46;;;;;;;;;9.50;9.50;;;;;27.57;44.70;100742.41;4961793;28;45379;-83
2023/06/17 15:14:13;;;;;;;;;11.25;11.25;;;;;27.50;44.81;100726.59;4961672;28;46057;-83
2023/06/17 15:16:39;;;;;;;;;9.50;9.50;;;;;27.50;45.12;100726.59;4971352;28;48749;-83
2023/06/17 15:19:05;;;;;;;;;14.50;12.50;;;;;27.62;44.50;100749.13;4961872;28;45205;-83
2023/06/17 15:21:30;;;;;;;;;11.00;11.00;;;;;27.44;44.35;100719.00;4956767;28;45286;-83
2023/06/17 15:23:56;;;;;;;;;13.50;12.00;;;;;27.49;44.67;100724.00;4961595;28;45337;-83
2023/06/17 15:26:21;;;;;;;;;12.25;12.25;;;;;27.57;44.77;100742.41;4976719;28;50764;-83
2023/06/17 15:28:46;;;;;;;;;17.25;16.00;;;;;27.40;44.72;100713.97;4950958;28;49012;-83
2023/06/17 15:31:11;;;;;;;;;13.50;12.50;;;;;27.34;45.91;100704.53;4958816;28;49622;-83
2023/06/17 15:33:37;;;;;;;;;14.25;13.00;;;;;27.43;45.11;100709.06;4960561;28;47599;-84
2023/06/17 15:36:04;;;;;;;;;13.50;13.50;;;;;27.60;45.09;100729.22;4948314;28;48379;-84
2023/06/17 15:38:29;;;;;;;;;13.25;13.00;;;;;27.50;44.99;100706.53;4960310;28;45489;-84
2023/06/17 15:40:54;;;;;;;;;13.75;12.75;;;;;27.55;44.09;100706.91;4952828;28;45454;-84
2023/06/17 15:43:20;;;;;;;;;16.75;16.00;;;;;27.70;44.71;100720.91;4961266;28;45391;-84
2023/06/17 15:45:45;;;;;;;;;14.25;13.75;;;;;27.62;44.96;100696.16;4960360;28;45340;-84
2023/06/17 15:48:10;;;;;;;;;15.00;15.00;;;;;27.84;45.48;100724.91;4960901;28;45276;-84
2023/06/17 15:50:36;;;;;;;;;14.75;14.75;;;;;27.71;44.65;100689.69;4961239;28;45535;-84
2023/06/17 15:53:01;;;;;;;;;18.75;17.50;;;;;27.94;44.85;100719.34;4975283;28;47320;-84
2023/06/17 15:55:26;;;;;;;;;17.25;17.25;;;;;27.84;45.05;100694.75;4959481;28;45552;-84
2023/06/17 15:57:52;;;;;;;;;17.00;17.00;;;;;27.84;44.06;100678.28;4959971;28;45335;-84
2023/06/17 16:00:18;;;;;;;;;20.25;20.25;;;;;27.91;43.55;100690.31;4964892;28;45458;-84
2023/06/17 16:02:43;;;;;;;;;19.50;18.50;;;;;28.09;43.54;100702.09;4961254;28;45476;-83
2023/06/17 16:05:10;;;;;;;;;20.75;18.75;;;;;27.97;43.33;100666.91;4960437;28;45327;-83
2023/06/17 16:07:35;;;;;;;;;20.75;20.50;;;;;28.04;43.33;100684.41;4960975;28;45263;-83
2023/06/17 16:10:01;;;;;;;;;18.00;17.75;;;;;28.18;43.47;100693.88;4969560;28;45297;-83
2023/06/17 16:12:26;;;;;;;;;19.25;19.25;;;;;28.08;43.81;100681.19;4959589;28;45420;-83
2023/06/17 16:14:51;;;;;;;;;21.25;20.50;;;;;28.17;43.99;100697.69;4961293;28;45371;-82
2023/06/17 16:17:17;;;;;;;;;19.50;16.75;;;;;28.08;45.11;100674.81;4968331;28;45444;-82
2023/06/17 16:19:43;;;;;;;;;20.25;17.75;;;;;28.08;44.84;100672.06;4961961;28;45411;-82
2023/06/17 16:22:09;;;;;;;;;21.00;19.50;;;;;28.30;44.68;100699.91;4956484;28;45716;-83
2023/06/17 16:24:35;;;;;;;;;20.00;20.00;;;;;28.20;45.03;100667.13;4956230;28;45513;-84
2023/06/17 16:27:01;;;;;;;;;17.25;17.25;;;;;28.37;44.21;100688.13;4964173;28;45474;-83
2023/06/17 16:29:26;;;;;;;;;20.00;19.00;;;;;28.27;43.90;100669.06;4968552;28;45427;-83
2023/06/17 16:31:51;;;;;;;;;17.75;17.00;;;;;28.19;43.17;100648.97;4980056;28;45665;-83
2023/06/17 16:34:17;;;;;;;;;21.50;18.25;;;;;28.26;43.13;100666.47;4986834;28;45462;-83
2023/06/17 16:36:42;;;;;;;;;18.00;17.00;;;;;28.28;43.48;100661.66;4947755;28;45324;-85
2023/06/17 16:39:09;;;;;;;;;18.00;18.00;;;;;28.25;43.14;100653.75;4960153;28;45347;-84
2023/06/17 16:41:35;;;;;;;;;22.75;20.75;;;;;28.40;43.29;100674.06;4959766;28;45503;-83
2023/06/17 16:44:01;;;;;;;;;22.25;20.25;;;;;28.40;43.38;100667.69;4948031;28;45404;-85
2023/06/17 16:46:27;;;;;;;;;21.50;19.00;;;;;28.44;43.16;100677.34;4961168;28;45253;-84
2023/06/17 16:48:53;;;;;;;;;21.25;19.75;;;;;28.54;42.69;100686.28;4961627;28;45549;-85
2023/06/17 16:51:19;;;;;;;;;21.50;19.25;;;;;28.39;42.72;100664.09;4959551;28;45587;-85
2023/06/17 16:53:44;;;;;;;;;18.75;18.25;;;;;28.58;42.61;100690.41;4953177;28;45535;-85
2023/06/17 16:56:10;;;;;;;;;22.00;20.75;;;;;28.45;42.96;100668.03;4960608;28;45395;-85
2023/06/17 16:58:36;;;;;;;;;21.00;21.00;;;;;28.62;42.83;100690.97;4975476;28;45545;-84
2023/06/17 17:01:01;;;;;;;;;18.50;17.50;;;;;28.53;43.10;100665.31;4960291;28;45377;-85
2023/06/17 17:03:26;;;;;;;;;20.25;19.25;;;;;28.52;42.56;100670.97;4974808;28;45281;-84
2023/06/17 17:05:52;;;;;;;;;19.50;19.50;;;;;28.51;41.90;100666.53;4963460;28;45835;-84
2023/06/17 17:08:17;;;;;;;;;18.75;18.00;;;;;28.68;42.32;100694.91;4957944;28;45391;-84
2023/06/17 17:10:42;;;;;;;;;19.50;18.00;;;;;28.54;42.11;100667.06;4959537;28;48626;-84
2023/06/17 17:13:08;;;;;;;;;18.50;17.50;;;;;28.56;42.75;100666.91;4959089;28;45530;-84
2023/06/17 17:15:33;;;;;;;;;23.50;21.00;;;;;28.59;42.21;100666.59;4960794;28;45316;-84
2023/06/17 17:17:58;;;;;;;;;17.50;16.50;;;;;28.75;41.92;100687.69;4959945;28;45232;-84
2023/06/17 17:20:24;;;;;;;;;17.50;17.50;;;;;28.57;41.83;100649.44;4960825;28;45920;-84
2023/06/17 17:22:50;;;;;;;;;20.00;19.50;;;;;28.62;42.38;100660.75;4995935;22;45785;-66
2023/06/17 17:51:54;;;;;;;;;20.00;20.00;;;;;28.57;43.14;100675.00;5443552;22;45376;-66
2023/06/17 17:54:20;;;;;;;;;19.25;17.50;;;;;28.55;42.94;100666.03;4971929;28;45478;-66
2023/06/17 17:56:45;;;;;;;;;20.75;19.25;;;;;28.55;43.25;100662.41;4971889;28;45567;-66
2023/06/17 17:59:10;;;;;;;;;18.50;18.00;;;;;28.54;43.88;100663.47;4960238;28;45405;-66
2023/06/17 18:01:36;;;;;;;;;19.75;19.75;;;;;28.55;43.40;100662.41;4971689;28;45643;-66
2023/06/17 18:04:01;;;;;;;;;21.00;20.50;;;;;28.68;43.40;100683.91;4970423;28;45459;-66
2023/06/17 18:06:29;;;;;;;;;23.00;22.50;;;;;28.60;43.33;100673.78;4958694;28;45487;-66
2023/06/17 18:08:55;;;;;;;;;18.25;16.75;;;;;28.56;43.58;100666.91;4964771;28;45934;-66
2023/06/17 18:11:20;;;;;;;;;18.75;18.75;;;;;28.50;43.43;100662.06;4970826;28;45372;-66
2023/06/17 18:13:45;;;;;;;;;22.25;22.25;;;;;28.49;42.80;100663.94;4960219;28;45392;-67
2023/06/17 18:16:11;;;;;;;;;23.25;22.50;;;;;28.44;44.06;100661.72;4969966;28;45622;-66
2023/06/17 18:18:36;;;;;;;;;17.00;17.00;;;;;28.42;43.68;100665.66;4965921;28;45620;-66
2023/06/17 18:21:01;;;;;;;;;24.00;23.25;;;;;28.43;43.04;100673.75;4974432;28;45390;-66
2023/06/17 18:23:27;;;;;;;;;14.25;13.25;;;;;28.37;43.92;100663.41;4980288;28;45277;-66
2023/06/17 18:25:52;;;;;;;;;20.25;19.75;;;;;28.34;43.98;100661.00;4962851;28;45420;-66
2023/06/17 18:28:17;;;;;;;;;20.50;19.50;;;;;28.42;44.37;100669.25;4975792;28;45533;-66
2023/06/17 18:30:43;;;;;;;;;19.25;19.00;;;;;28.31;44.05;100652.25;4973881;28;45547;-66
2023/06/17 18:33:08;;;;;;;;;19.25;19.25;;;;;28.44;43.50;100674.59;4962303;28;45497;-66
2023/06/17 18:35:33;;;;;;;;;20.00;19.25;;;;;28.31;43.72;100646.75;4962329;28;45368;-66
2023/06/17 18:37:59;;;;;;;;;22.25;22.25;;;;;28.33;43.57;100655.69;4975207;28;45335;-66
2023/06/17 18:40:24;;;;;;;;;20.00;20.00;;;;;28.30;43.46;100636.78;4962176;28;45506;-66
2023/06/17 18:42:50;;;;;;;;;19.25;19.25;;;;;28.33;43.39;100641.97;4962128;28;45387;-66
2023/06/17 18:45:16;;;;;;;;;26.00;24.75;;;;;28.27;43.55;100644.34;4962609;28;45481;-66
2023/06/17 18:47:41;;;;;;;;;16.75;16.00;;;;;28.26;44.06;100639.03;4961742;28;45761;-66
2023/06/17 18:50:07;;;;;;;;;24.25;24.25;;;;;28.27;43.67;100643.50;4966000;28;46598;-66
2023/06/17 18:52:33;;;;;;;;;21.25;21.25;;;;;28.39;44.11;100661.34;4964696;28;45350;-66
2023/06/17 18:54:58;;;;;;;;;24.00;21.75;;;;;28.26;43.25;100641.78;4974383;28;45237;-66
2023/06/17 18:57:24;;;;;;;;;21.50;20.50;;;;;28.27;43.75;100655.31;4964861;28;45704;-66
2023/06/17 18:59:50;;;;;;;;;19.75;19.75;;;;;28.23;43.22;100639.34;4972098;28;45316;-67
2023/06/17 19:02:15;;;;;;;;;18.50;18.25;;;;;28.17;43.09;100638.16;4964197;28;45447;-66
2023/06/17 19:04:40;;;;;;;;;22.75;20.50;;;;;28.37;43.26;100674.41;4962025;28;45324;-66
2023/06/17 19:07:06;;;;;;;;;19.00;19.00;;;;;28.18;43.61;100647.22;4965348;28;45286;-66
2023/06/17 19:09:31;;;;;;;;;16.25;16.25;;;;;28.22;43.36;100656.88;4970874;28;45357;-66
2023/06/17 19:11:59;;;;;;;;;18.50;18.50;;;;;28.12;42.65;100643.28;4974688;28;45349;-66
2023/06/17 19:14:26;;;;;;;;;25.25;22.25;;;;;28.13;43.44;100653.22;4962058;28;45486;-66
2023/06/17 19:16:51;;;;;;;;;22.75;22.75;;;;;28.11;43.53;100644.28;4977550;28;45499;-66
2023/06/17 19:19:16;;;;;;;;;25.00;23.50;;;;;28.05;42.64;100645.84;4970200;28;46645;-66
2023/06/17 19:21:42;;;;;;;;;20.50;20.25;;;;;28.05;42.29;100644.94;4973531;28;45500;-67
2023/06/17 19:24:07;;;;;;;;;20.25;20.00;;;;;28.16;42.58;100674.84;4969899;28;45633;-66
2023/06/17 19:26:34;;;;;;;;;21.50;20.50;;;;;28.12;42.31;100669.84;4973354;28;46298;-66
2023/06/17 19:28:59;;;;;;;;;19.25;18.75;;;;;28.01;42.61;100647.19;4973014;28;46445;-66
2023/06/17 19:31:25;;;;;;;;;19.50;17.25;;;;;27.99;42.15;100648.38;4965445;28;45444;-66
2023/06/17 19:33:51;;;;;;;;;19.00;18.00;;;;;28.00;42.80;100655.56;4961608;28;45331;-66
2023/06/17 19:36:17;;;;;;;;;21.25;18.75;;;;;27.99;42.41;100654.72;4964031;28;45699;-66
2023/06/17 19:38:42;;;;;;;;;25.50;22.50;;;;;27.94;42.74;100651.63;4971307;28;46439;-66
2023/06/17 19:41:07;;;;;;;;;20.00;19.25;;;;;27.94;42.13;100651.63;4961432;28;45323;-67
2023/06/17 21:05:21;;;;;;;;;22.75;22.25;;;;;27.51;42.29;100653.41;5587065;23;45824;-68
2023/06/17 21:07:51;;;;;;;;;21.25;21.00;;;;;27.66;42.26;100675.63;4973456;28;45731;-68
2023/06/17 21:38:21;;;;;;;;;19.50;19.00;;;;;27.34;42.67;100634.13;4924169;28;45908;-65
2023/06/17 21:44:00;;;;;;;;;19.50;18.25;;;;;27.47;42.39;100652.88;4949244;28;45552;-65
2023/06/17 21:46:56;;;;;;;;;;;;;;;;;;;;;
2023/06/17 21:49:39;;;;;;;;;;;;;;;;;;;;;
2023/06/17 21:52:11;;;;;;;;;17.75;17.75;;;;;27.20;42.46;100611.91;4947800;28;71332;-65
2023/06/17 21:54:44;;;;;;;;;21.00;19.50;;;;;27.37;42.68;100648.56;4960591;28;46445;-65
2023/06/17 21:57:36;;;;;;;;;;;;;;;;;;;;;
2023/06/17 22:00:14;;;;;;;;;15.50;15.50;;;;;27.34;42.87;100639.63;4955059;28;67393;-65
2023/06/17 22:02:51;;;;;;;;;21.50;19.50;;;;;27.24;42.80;100630.63;4961895;28;45560;-65
2023/06/17 22:05:46;;;;;;;;;13.50;11.50;;;;;27.35;42.67;100651.47;4952310;28;45358;-66
2023/06/17 22:08:36;;;;;;;;;;;;;;;;;;;;;
2023/06/17 22:11:14;;;;;;;;;;;;;;;;;;;;;
2023/06/17 22:13:49;;;;;;;;;17.25;16.25;;;;;27.23;43.00;100636.25;4961736;28;71488;-65
2023/06/17 22:16:27;;;;;;;;;;;;;;;;;;;;;
2023/06/17 22:19:03;;;;;;;;;;;;;;;;;;;;;
2023/06/17 22:21:41;;;;;;;;;17.50;17.50;;;;;26.79;42.39;100566.78;4961711;28;68311;-65
2023/06/17 22:24:37;;;;;;;;;;;;;;;;;;;;;
2023/06/17 22:27:18;;;;;;;;;20.25;19.00;;;;;27.11;43.00;100622.81;4958938;28;73848;-65
2023/06/17 22:30:06;;;;;;;;;17.75;17.75;;;;;26.84;42.99;100581.88;4962675;28;45290;-65
2023/06/17 22:35:40;;;;;;;;;;;;;;;;;;;;;
2023/06/17 22:38:14;;;;;;;;;14.75;14.75;;;;;26.88;42.59;100592.38;4961008;28;74047;-65
2023/06/17 22:40:52;;;;;;;;;;;;;;;;;;;;;
2023/06/17 22:43:50;;;;;;;;;21.00;20.00;;;;;27.11;42.32;100624.69;4957539;28;68820;-66
2023/06/17 22:46:25;;;;;;;;;;;;;;;;;;;;;
2023/06/17 22:52:12;;;;;;;;;18.75;18.75;;;;;26.98;42.59;100612.28;4949552;28;45341;-65
2023/06/17 22:54:37;;;;;;;;;15.75;15.75;;;;;27.06;42.51;100619.69;4961954;28;45286;-66
2023/06/17 22:57:08;;;;;;;;;17.50;17.50;;;;;26.85;42.93;100592.69;4962039;28;45262;-65
2023/06/17 22:59:46;;;;;;;;;;;;;;;;;;;;;
2023/06/17 23:02:17;;;;;;;;;16.25;14.75;;;;;26.88;42.98;100599.69;4960893;28;72941;-65
2023/06/17 23:05:10;;;;;;;;;;;;;;;;;;;;;